createdAt,value
2017-11-28T00:01:06.184Z,6.00
2017-11-28T00:03:35.232Z,6.00
2017-11-28T00:06:04.066Z,6.00
2017-11-28T00:08:32.106Z,6.10
2017-11-28T00:11:00.186Z,6.00
2017-11-28T00:13:28.253Z,6.00
2017-11-28T00:15:56.324Z,6.00
2017-11-28T00:18:24.387Z,6.00
2017-11-28T00:20:52.450Z,6.10
2017-11-28T00:23:22.189Z,5.90
2017-11-28T00:25:50.259Z,5.80
2017-11-28T00:28:18.335Z,6.00
2017-11-28T00:30:46.403Z,6.10
2017-11-28T00:33:14.458Z,6.10
2017-11-28T00:35:42.527Z,6.00
2017-11-28T00:38:10.584Z,6.00
2017-11-28T00:40:39.403Z,6.00
2017-11-28T00:43:07.499Z,6.10
2017-11-28T00:45:35.567Z,6.00
2017-11-28T00:48:03.619Z,6.00
2017-11-28T00:50:31.686Z,6.10
2017-11-28T00:52:59.779Z,6.10
2017-11-28T00:55:28.772Z,6.10
2017-11-28T00:57:56.840Z,6.10
2017-11-28T01:00:24.890Z,6.10
2017-11-28T01:02:52.983Z,6.10
2017-11-28T01:05:21.044Z,6.20
2017-11-28T01:07:49.109Z,6.30
2017-11-28T01:10:17.195Z,6.30
2017-11-28T01:12:45.252Z,6.20
2017-11-28T01:15:13.316Z,6.30
2017-11-28T01:17:41.408Z,6.20
2017-11-28T01:20:09.464Z,6.20
2017-11-28T01:22:37.531Z,6.30
2017-11-28T01:25:05.623Z,6.30
2017-11-28T01:27:33.690Z,6.30
2017-11-28T01:30:01.749Z,6.30
2017-11-28T01:32:29.821Z,6.30
2017-11-28T01:34:57.924Z,6.30
2017-11-28T01:37:25.987Z,6.30
2017-11-28T01:39:54.058Z,6.40
2017-11-28T01:42:22.104Z,6.30
2017-11-28T01:44:50.176Z,6.30
2017-11-28T01:47:18.277Z,6.20
2017-11-28T01:49:46.388Z,6.20
2017-11-28T01:52:14.450Z,6.20
2017-11-28T01:54:42.553Z,6.30
2017-11-28T01:57:10.611Z,6.30
2017-11-28T01:59:38.676Z,6.20
2017-11-28T02:02:06.736Z,6.20
2017-11-28T02:04:34.855Z,6.10
2017-11-28T02:07:02.915Z,6.10
2017-11-28T02:09:30.983Z,6.10
2017-11-28T02:11:59.060Z,6.00
2017-11-28T02:14:27.127Z,6.00
2017-11-28T02:16:55.189Z,6.00
2017-11-28T02:19:23.240Z,6.00
2017-11-28T02:21:51.516Z,6.10
2017-11-28T02:24:19.580Z,6.10
2017-11-28T02:26:47.650Z,6.20
2017-11-28T02:29:15.771Z,6.30
2017-11-28T02:31:43.828Z,6.30
2017-11-28T02:34:11.900Z,6.40
2017-11-28T02:36:40.753Z,6.40
2017-11-28T02:39:08.871Z,6.40
2017-11-28T02:41:36.937Z,6.40
2017-11-28T02:44:06.295Z,6.50
2017-11-28T02:46:34.371Z,6.50
2017-11-28T02:49:25.437Z,6.50
2017-11-28T02:51:59.767Z,6.40
2017-11-28T02:54:28.603Z,6.40
2017-11-28T02:56:56.883Z,6.40
2017-11-28T02:59:37.376Z,6.40
2017-11-28T03:02:05.428Z,6.30
2017-11-28T03:04:33.509Z,6.30
2017-11-28T03:07:02.404Z,6.30
2017-11-28T03:09:31.278Z,6.40
2017-11-28T03:12:03.002Z,6.40
2017-11-28T03:14:33.539Z,6.40
2017-11-28T03:17:02.490Z,6.40
2017-11-28T03:19:43.946Z,6.40
2017-11-28T03:22:27.475Z,6.50
2017-11-28T03:25:02.935Z,6.40
2017-11-28T03:27:31.008Z,6.40
2017-11-28T03:30:02.953Z,6.40
2017-11-28T03:32:31.007Z,6.40
2017-11-28T03:34:59.724Z,6.50
2017-11-28T03:37:27.856Z,6.50
2017-11-28T03:39:56.859Z,6.60
2017-11-28T03:42:24.938Z,6.60
2017-11-28T03:48:01.332Z,6.60
2017-11-28T03:50:29.397Z,6.60
2017-11-28T03:52:57.456Z,6.60
2017-11-28T03:55:25.524Z,6.60
2017-11-28T03:57:53.600Z,6.60
2017-11-28T04:00:23.863Z,6.60
2017-11-28T04:02:52.708Z,6.60
2017-11-28T04:05:20.772Z,6.80
2017-11-28T04:07:48.832Z,6.60
2017-11-28T04:10:16.905Z,6.60
2017-11-28T04:12:44.973Z,6.70
2017-11-28T04:15:13.028Z,6.70
2017-11-28T04:17:41.133Z,6.70
2017-11-28T04:20:09.192Z,6.70
2017-11-28T04:22:37.281Z,6.70
2017-11-28T04:25:05.453Z,6.70
2017-11-28T04:27:33.523Z,6.70
2017-11-28T04:30:01.595Z,6.70
2017-11-28T04:32:29.680Z,6.70
2017-11-28T04:34:58.501Z,6.70
2017-11-28T04:37:26.559Z,6.90
2017-11-28T04:39:54.623Z,6.70
2017-11-28T04:42:23.444Z,6.80
2017-11-28T04:44:51.518Z,6.80
2017-11-28T04:47:19.605Z,6.90
2017-11-28T04:49:47.676Z,6.90
2017-11-28T04:52:15.755Z,6.90
2017-11-28T04:54:43.827Z,6.90
2017-11-28T04:57:11.889Z,6.80
2017-11-28T04:59:39.959Z,6.90
2017-11-28T05:02:08.032Z,6.90
2017-11-28T05:04:36.100Z,7.00
2017-11-28T05:07:04.157Z,6.90
2017-11-28T05:09:32.216Z,6.90
2017-11-28T05:12:00.282Z,6.90
2017-11-28T05:14:28.342Z,7.00
2017-11-28T05:16:56.402Z,7.00
2017-11-28T05:19:24.478Z,7.00
2017-11-28T05:21:52.598Z,7.10
2017-11-28T05:24:20.693Z,7.10
2017-11-28T05:26:48.762Z,6.90
2017-11-28T05:29:16.819Z,6.90
2017-11-28T05:31:44.995Z,7.00
2017-11-28T05:34:13.056Z,7.00
2017-11-28T05:36:41.161Z,6.90
2017-11-28T05:39:09.979Z,6.90
2017-11-28T05:41:38.055Z,7.00
2017-11-28T05:44:06.117Z,6.90
2017-11-28T05:46:34.214Z,6.90
2017-11-28T05:49:02.256Z,6.90
2017-11-28T05:51:30.324Z,7.00
2017-11-28T05:53:58.452Z,6.90
2017-11-28T05:56:26.615Z,6.90
2017-11-28T05:58:54.725Z,6.80
2017-11-28T06:01:23.590Z,6.80
2017-11-28T06:03:51.669Z,7.00
2017-11-28T06:06:20.538Z,6.90
2017-11-28T06:08:48.613Z,7.10
2017-11-28T06:11:16.684Z,6.80
2017-11-28T06:13:44.852Z,6.80
2017-11-28T06:16:12.929Z,6.80
2017-11-28T06:18:40.996Z,6.70
2017-11-28T06:21:09.083Z,6.70
2017-11-28T06:23:38.065Z,6.70
2017-11-28T06:26:06.130Z,6.90
2017-11-28T06:28:34.200Z,6.80
2017-11-28T06:31:02.272Z,6.70
2017-11-28T06:33:30.342Z,6.80
2017-11-28T06:35:58.426Z,6.80
2017-11-28T06:38:26.500Z,6.70
2017-11-28T06:40:55.330Z,6.70
2017-11-28T06:43:23.447Z,6.80
2017-11-28T06:45:51.885Z,6.80
2017-11-28T06:48:20.002Z,6.70
2017-11-28T06:50:48.067Z,6.70
2017-11-28T06:53:17.163Z,6.70
2017-11-28T06:55:45.216Z,6.80
2017-11-28T06:58:13.285Z,6.80
2017-11-28T07:00:41.351Z,6.80
2017-11-28T07:03:09.425Z,6.70
2017-11-28T07:05:37.522Z,6.70
2017-11-28T07:08:05.619Z,6.70
2017-11-28T07:10:33.704Z,6.70
2017-11-28T07:13:01.809Z,6.80
2017-11-28T07:15:29.906Z,6.90
2017-11-28T07:17:57.948Z,6.90
2017-11-28T07:20:26.027Z,6.90
2017-11-28T07:22:54.756Z,7.00
2017-11-28T07:25:23.576Z,7.00
2017-11-28T07:27:51.643Z,7.30
2017-11-28T07:30:20.336Z,7.00
2017-11-28T07:32:48.400Z,6.90
2017-11-28T07:35:16.806Z,7.00
2017-11-28T07:37:44.864Z,7.00
2017-11-28T07:40:14.095Z,6.90
2017-11-28T07:42:42.166Z,6.90
2017-11-28T07:45:10.237Z,6.90
2017-11-28T07:47:39.060Z,6.90
2017-11-28T07:50:07.286Z,7.00
2017-11-28T07:52:35.339Z,7.00
2017-11-28T07:55:03.414Z,7.00
2017-11-28T07:57:31.492Z,7.10
2017-11-28T07:59:59.662Z,7.20
2017-11-28T08:02:27.794Z,7.30
2017-11-28T08:04:55.887Z,7.20
2017-11-28T08:07:23.973Z,7.20
2017-11-28T08:09:52.177Z,7.20
2017-11-28T08:12:21.084Z,7.20
2017-11-28T08:14:49.158Z,7.40
2017-11-28T08:17:17.245Z,7.20
2017-11-28T08:19:45.317Z,7.30
2017-11-28T08:22:13.393Z,7.30
2017-11-28T08:24:41.483Z,7.40
2017-11-28T08:27:09.569Z,7.40
2017-11-28T08:29:37.872Z,7.40
2017-11-28T08:32:06.716Z,7.50
2017-11-28T08:34:34.772Z,7.50
2017-11-28T08:37:02.857Z,7.60
2017-11-28T08:39:31.015Z,7.60
2017-11-28T08:41:59.114Z,7.60
2017-11-28T08:44:27.439Z,7.60
2017-11-28T08:46:55.498Z,7.70
2017-11-28T08:49:23.577Z,7.70
2017-11-28T08:51:51.722Z,7.70
2017-11-28T08:54:19.767Z,7.80
2017-11-28T08:56:47.836Z,7.80
2017-11-28T08:59:15.901Z,7.80
2017-11-28T09:01:44.009Z,7.80
2017-11-28T09:04:12.844Z,7.80
2017-11-28T09:06:40.919Z,7.80
2017-11-28T09:09:08.988Z,7.80
2017-11-28T09:11:37.062Z,7.80
2017-11-28T09:14:05.128Z,7.90
2017-11-28T09:16:33.211Z,8.00
2017-11-28T09:19:01.303Z,8.10
2017-11-28T09:21:29.369Z,8.10
2017-11-28T09:23:57.447Z,8.00
2017-11-28T09:26:25.652Z,8.00
2017-11-28T09:28:53.728Z,8.10
2017-11-28T09:31:21.795Z,8.20
2017-11-28T09:33:50.638Z,8.30
2017-11-28T09:36:18.742Z,8.20
2017-11-28T09:38:46.907Z,8.10
2017-11-28T09:41:15.728Z,8.20
2017-11-28T09:43:43.799Z,8.10
2017-11-28T09:46:11.867Z,8.10
2017-11-28T09:48:39.942Z,8.10
2017-11-28T09:51:08.008Z,8.20
2017-11-28T09:53:36.070Z,8.30
2017-11-28T09:56:04.149Z,8.50
2017-11-28T09:58:32.268Z,8.50
2017-11-28T10:01:00.345Z,8.60
2017-11-28T10:03:28.425Z,8.70
2017-11-28T10:05:56.483Z,8.50
2017-11-28T10:08:24.618Z,8.60
2017-11-28T10:10:52.692Z,8.50
2017-11-28T10:13:20.763Z,8.40
2017-11-28T10:15:48.838Z,8.30
2017-11-28T10:18:16.936Z,8.20
2017-11-28T10:20:45.026Z,8.10
2017-11-28T10:23:13.856Z,8.20
2017-11-28T10:25:41.917Z,8.10
2017-11-28T10:28:10.041Z,8.20
2017-11-28T10:30:38.096Z,8.30
2017-11-28T10:33:06.170Z,8.20
2017-11-28T10:35:34.243Z,8.20
2017-11-28T10:38:02.318Z,8.20
2017-11-28T10:40:30.397Z,8.30
2017-11-28T10:42:58.471Z,8.30
2017-11-28T10:45:26.642Z,8.20
2017-11-28T10:47:55.088Z,8.40
2017-11-28T10:50:23.164Z,8.40
2017-11-28T10:52:51.237Z,8.50
2017-11-28T10:55:19.328Z,8.50
2017-11-28T10:57:47.396Z,8.60
2017-11-28T11:00:15.457Z,8.70
2017-11-28T11:02:43.548Z,8.70
2017-11-28T11:05:12.400Z,9.00
2017-11-28T11:07:40.496Z,8.90
2017-11-28T11:10:08.602Z,8.90
2017-11-28T11:12:37.449Z,9.00
2017-11-28T11:15:05.531Z,8.90
2017-11-28T11:17:33.592Z,9.00
2017-11-28T11:20:01.665Z,8.80
2017-11-28T11:22:29.725Z,8.70
2017-11-28T11:24:57.797Z,8.70
2017-11-28T11:27:25.862Z,8.60
2017-11-28T11:29:54.139Z,8.60
2017-11-28T11:32:22.197Z,8.60
2017-11-28T11:34:50.402Z,8.60
2017-11-28T11:37:18.471Z,8.60
2017-11-28T11:39:46.773Z,8.50
2017-11-28T11:42:15.661Z,8.70
2017-11-28T11:44:44.528Z,8.70
2017-11-28T11:47:18.407Z,8.80
2017-11-28T11:49:46.504Z,8.80
2017-11-28T11:52:14.795Z,8.70
2017-11-28T11:54:43.736Z,8.90
2017-11-28T11:57:11.820Z,8.90
2017-11-28T11:59:39.929Z,8.90
2017-11-28T12:02:07.986Z,9.00
2017-11-28T12:04:36.057Z,9.30
2017-11-28T12:07:04.149Z,9.20
2017-11-28T12:09:33.022Z,10.10
2017-11-28T12:12:02.101Z,10.10
2017-11-28T12:14:30.173Z,10.70
2017-11-28T12:16:58.241Z,10.70
2017-11-28T12:19:26.313Z,10.60
2017-11-28T12:21:54.494Z,10.50
2017-11-28T12:24:22.564Z,11.50
2017-11-28T12:26:50.666Z,12.60
2017-11-28T12:29:19.501Z,13.80
2017-11-28T12:31:47.593Z,13.80
2017-11-28T12:34:15.669Z,14.40
2017-11-28T12:36:43.837Z,14.30
2017-11-28T12:39:11.922Z,13.10
2017-11-28T12:41:39.989Z,11.90
2017-11-28T12:44:08.066Z,11.30
2017-11-28T12:46:36.144Z,10.60
2017-11-28T12:49:04.998Z,10.00
2017-11-28T12:51:33.093Z,9.90
2017-11-28T12:54:01.227Z,9.80
2017-11-28T12:56:29.297Z,9.70
2017-11-28T12:58:57.369Z,9.70
2017-11-28T13:01:25.448Z,9.50
2017-11-28T13:03:53.508Z,9.60
2017-11-28T13:06:21.606Z,9.70
2017-11-28T13:08:49.704Z,9.70
2017-11-28T13:11:18.560Z,9.70
2017-11-28T13:13:46.670Z,9.70
2017-11-28T13:16:15.572Z,9.50
2017-11-28T13:18:43.679Z,9.50
2017-11-28T13:21:11.753Z,9.30
2017-11-28T13:23:39.901Z,9.10
2017-11-28T13:26:08.013Z,9.10
2017-11-28T13:28:36.087Z,9.00
2017-11-28T13:31:04.157Z,8.70
2017-11-28T13:33:32.331Z,8.80
2017-11-28T13:36:00.412Z,8.80
2017-11-28T13:38:29.245Z,8.60
2017-11-28T13:40:57.320Z,8.70
2017-11-28T13:43:25.389Z,8.60
2017-11-28T13:45:53.453Z,8.60
2017-11-28T13:48:21.586Z,8.60
2017-11-28T13:50:49.655Z,8.70
2017-11-28T13:53:17.716Z,8.60
2017-11-28T13:55:45.784Z,8.50
2017-11-28T13:58:13.868Z,8.20
2017-11-28T14:00:41.929Z,8.30
2017-11-28T14:03:10.770Z,8.20
2017-11-28T14:05:38.854Z,8.10
2017-11-28T14:08:06.939Z,8.20
2017-11-28T14:10:35.293Z,8.10
2017-11-28T14:13:03.363Z,8.00
2017-11-28T14:15:31.441Z,8.00
2017-11-28T14:17:59.508Z,8.00
2017-11-28T14:23:45.215Z,7.80
2017-11-28T14:26:18.888Z,7.90
2017-11-28T14:28:48.393Z,7.70
2017-11-28T14:31:22.093Z,7.70
2017-11-28T14:33:50.228Z,7.70
2017-11-28T14:36:20.560Z,7.80
2017-11-28T14:39:06.182Z,7.60
2017-11-28T14:41:36.669Z,7.80
2017-11-28T14:44:05.505Z,7.70
2017-11-28T14:46:33.573Z,7.80
2017-11-28T14:49:01.645Z,7.70
2017-11-28T14:51:47.411Z,7.60
2017-11-28T14:54:22.007Z,7.60
2017-11-28T14:59:58.658Z,7.60
2017-11-28T15:02:32.193Z,7.50
2017-11-28T15:08:10.885Z,7.50
2017-11-28T15:10:40.693Z,7.50
2017-11-28T15:13:14.272Z,7.50
2017-11-28T15:15:58.025Z,7.50
2017-11-28T15:30:52.921Z,7.60
2017-11-28T15:33:20.996Z,7.60
2017-11-28T15:35:49.064Z,7.60
2017-11-28T15:38:17.129Z,7.50
2017-11-28T15:40:45.227Z,7.50
2017-11-28T15:43:13.298Z,7.50
2017-11-28T15:45:41.361Z,7.40
2017-11-28T15:48:09.429Z,7.30
2017-11-28T15:50:37.516Z,7.30
2017-11-28T15:53:05.588Z,7.30
2017-11-28T15:55:33.732Z,7.40
2017-11-28T15:58:01.807Z,7.30
2017-11-28T16:00:29.869Z,7.40
2017-11-28T16:02:57.941Z,7.30
2017-11-28T16:05:26.017Z,7.40
2017-11-28T16:07:54.087Z,7.30
2017-11-28T16:10:22.146Z,7.40
2017-11-28T16:12:50.222Z,7.40
2017-11-28T16:15:18.795Z,7.40
2017-11-28T16:17:46.869Z,7.40
2017-11-28T16:20:14.924Z,7.50
2017-11-28T16:22:43.031Z,7.50
2017-11-28T16:25:11.093Z,7.50
2017-11-28T16:27:39.207Z,7.50
2017-11-28T16:30:08.037Z,7.60
2017-11-28T16:32:36.093Z,7.50
2017-11-28T16:35:04.160Z,7.50
2017-11-28T16:37:32.244Z,7.40
2017-11-28T16:40:00.330Z,7.40
2017-11-28T16:42:28.396Z,7.30
2017-11-28T16:44:56.489Z,7.20
2017-11-28T16:47:24.555Z,7.30
2017-11-28T16:49:52.633Z,7.30
2017-11-28T16:52:20.695Z,7.40
2017-11-28T16:54:48.816Z,7.30
2017-11-28T16:57:16.883Z,7.40
2017-11-28T16:59:45.221Z,7.30
2017-11-28T17:02:13.483Z,7.30
2017-11-28T17:04:41.571Z,7.30
2017-11-28T17:07:09.638Z,7.30
2017-11-28T17:09:37.694Z,7.30
2017-11-28T17:12:05.756Z,7.30
2017-11-28T17:14:33.826Z,7.30
2017-11-28T17:17:01.903Z,7.40
2017-11-28T17:19:29.967Z,7.40
2017-11-28T17:21:58.427Z,7.30
2017-11-28T17:24:26.516Z,7.40
2017-11-28T17:26:54.575Z,7.40
2017-11-28T17:29:22.688Z,7.40
2017-11-28T17:31:50.760Z,7.40
2017-11-28T17:34:18.819Z,7.40
2017-11-28T17:36:46.897Z,7.40
2017-11-28T17:39:14.956Z,7.50
2017-11-28T17:41:43.029Z,7.50
2017-11-28T17:44:11.196Z,7.40
2017-11-28T17:46:39.261Z,7.30
2017-11-28T17:49:07.316Z,7.20
2017-11-28T17:51:35.418Z,7.30
2017-11-28T17:54:03.564Z,7.40
2017-11-28T17:56:31.638Z,7.40
2017-11-28T17:58:59.709Z,7.30
2017-11-28T18:01:27.774Z,7.30
2017-11-28T18:03:55.844Z,7.30
2017-11-28T18:06:23.915Z,7.30
2017-11-28T18:08:51.989Z,7.40
2017-11-28T18:11:20.051Z,7.40
2017-11-28T18:13:48.124Z,7.40
2017-11-28T18:16:16.216Z,7.30
2017-11-28T18:18:44.285Z,7.20
2017-11-28T18:21:12.360Z,7.30
2017-11-28T18:23:40.814Z,7.30
2017-11-28T18:26:08.876Z,7.40
2017-11-28T18:28:36.992Z,7.30
2017-11-28T18:31:09.546Z,7.20
2017-11-28T18:33:38.145Z,7.30
2017-11-28T18:36:06.221Z,7.30
2017-11-28T18:38:34.393Z,7.30
2017-11-28T18:41:02.497Z,7.20
2017-11-28T18:43:31.413Z,7.20
2017-11-28T18:45:59.516Z,7.40
2017-11-28T18:48:27.688Z,7.20
2017-11-28T18:50:55.760Z,7.20
2017-11-28T18:53:23.812Z,7.10
2017-11-28T18:55:51.887Z,7.20
2017-11-28T18:58:19.961Z,7.20
2017-11-28T19:00:48.028Z,7.20
2017-11-28T19:03:16.101Z,7.10
2017-11-28T19:05:44.187Z,7.10
2017-11-28T19:08:12.360Z,7.10
2017-11-28T19:10:40.427Z,7.10
2017-11-28T19:13:11.237Z,7.10
2017-11-28T19:15:39.308Z,7.20
2017-11-28T19:18:07.375Z,7.10
2017-11-28T19:20:35.460Z,7.10
2017-11-28T19:23:03.524Z,7.10
2017-11-28T19:25:31.605Z,7.20
2017-11-28T19:28:00.061Z,7.20
2017-11-28T19:30:28.161Z,7.10
2017-11-28T19:32:56.227Z,7.20
2017-11-28T19:35:24.300Z,7.10
2017-11-28T19:37:52.386Z,7.10
2017-11-28T19:40:20.440Z,7.00
2017-11-28T19:42:48.517Z,7.00
2017-11-28T19:45:16.582Z,7.10
2017-11-28T19:47:44.667Z,7.10
2017-11-28T19:50:12.727Z,7.20
2017-11-28T19:52:40.814Z,7.30
2017-11-28T19:55:08.879Z,7.30
2017-11-28T19:57:37.041Z,7.30
2017-11-28T20:00:05.116Z,7.30
2017-11-28T20:02:33.197Z,7.20
2017-11-28T20:05:01.329Z,7.20
2017-11-28T20:07:29.399Z,7.20
2017-11-28T20:09:57.683Z,7.10
2017-11-28T20:12:25.796Z,7.10
2017-11-28T20:14:54.637Z,7.10
2017-11-28T20:17:22.740Z,7.30
2017-11-28T20:19:51.859Z,7.20
2017-11-28T20:22:20.710Z,7.10
2017-11-28T20:24:48.876Z,7.30
2017-11-28T20:27:16.961Z,7.10
2017-11-28T20:29:46.151Z,7.20
2017-11-28T20:32:14.252Z,7.10
2017-11-28T20:34:42.321Z,7.10
2017-11-28T20:37:11.320Z,7.00
2017-11-28T20:39:39.384Z,7.00
2017-11-28T20:42:08.219Z,7.10
2017-11-28T20:44:36.289Z,7.40
2017-11-28T20:47:04.387Z,7.00
2017-11-28T20:49:34.401Z,7.00
2017-11-28T20:52:02.523Z,7.00
2017-11-28T20:54:30.655Z,7.00
2017-11-28T20:56:58.739Z,6.90
2017-11-28T20:59:27.583Z,6.90
2017-11-28T21:01:55.670Z,6.90
2017-11-28T21:04:23.736Z,6.80
2017-11-28T21:06:51.821Z,6.80
2017-11-28T21:09:19.912Z,6.90
2017-11-28T21:11:48.757Z,6.90
2017-11-28T21:14:16.820Z,7.10
2017-11-28T21:16:44.884Z,6.80
2017-11-28T21:19:12.950Z,6.80
2017-11-28T21:21:41.059Z,6.80
2017-11-28T21:24:09.142Z,6.90
2017-11-28T21:26:37.202Z,6.90
2017-11-28T21:29:05.275Z,6.80
2017-11-28T21:31:33.344Z,6.80
2017-11-28T21:34:01.425Z,6.90
2017-11-28T21:36:29.501Z,6.80
2017-11-28T21:38:57.560Z,6.70
2017-11-28T21:41:25.626Z,6.70
2017-11-28T21:43:53.713Z,6.70
2017-11-28T21:46:21.772Z,6.60
2017-11-28T21:48:49.846Z,6.60
2017-11-28T21:51:17.904Z,6.60
2017-11-28T21:53:46.375Z,6.60
2017-11-28T21:56:14.445Z,6.60
2017-11-28T21:58:42.517Z,6.60
2017-11-28T22:01:10.688Z,6.70
2017-11-28T22:03:38.744Z,6.70
2017-11-28T22:06:06.828Z,6.60
2017-11-28T22:08:34.905Z,6.60
2017-11-28T22:11:02.973Z,6.60
2017-11-28T22:13:31.049Z,6.70
2017-11-28T22:15:59.300Z,6.60
2017-11-28T22:18:27.368Z,6.50
2017-11-28T22:20:55.485Z,6.50
2017-11-28T22:23:23.544Z,6.40
2017-11-28T22:25:51.728Z,6.40
2017-11-28T22:28:19.796Z,6.50
2017-11-28T22:30:47.858Z,6.50
2017-11-28T22:33:15.918Z,6.50
2017-11-28T22:35:43.990Z,6.50
2017-11-28T22:38:12.060Z,6.40
2017-11-28T22:40:40.132Z,6.30
2017-11-28T22:43:08.208Z,6.30
2017-11-28T22:45:36.278Z,6.40
2017-11-28T22:48:04.377Z,6.50
2017-11-28T22:50:33.220Z,6.50
2017-11-28T22:53:01.278Z,6.40
2017-11-28T22:55:29.392Z,6.40
2017-11-28T22:57:57.466Z,6.40
2017-11-28T23:00:25.536Z,6.30
2017-11-28T23:02:53.639Z,6.50
2017-11-28T23:05:21.694Z,6.50
2017-11-28T23:07:50.550Z,6.50
2017-11-28T23:10:18.621Z,6.70
2017-11-28T23:12:46.692Z,6.60
2017-11-28T23:15:14.777Z,6.50
2017-11-28T23:17:42.990Z,6.40
2017-11-28T23:20:11.791Z,6.30
2017-11-28T23:22:39.862Z,6.40
2017-11-28T23:25:07.972Z,6.30
2017-11-28T23:27:36.041Z,6.10
2017-11-28T23:30:04.114Z,6.10
2017-11-28T23:32:32.193Z,6.00
2017-11-28T23:35:00.256Z,6.10
2017-11-28T23:37:28.348Z,6.10
2017-11-28T23:39:57.214Z,6.00
2017-11-28T23:42:25.290Z,6.20
2017-11-28T23:44:53.396Z,6.10
2017-11-28T23:47:21.468Z,6.20
2017-11-28T23:49:49.540Z,6.30
2017-11-28T23:52:17.612Z,6.30
2017-11-28T23:54:45.675Z,6.20
2017-11-28T23:57:13.747Z,6.20
2017-11-28T23:59:41.840Z,6.10
